NCAR-RAP Real-Time Weather Data

Output produced by METARs form (08 May 2021  00:53 UTC)
found at http://weather.rap.ucar.edu/surface/
 
KMFD 072352Z 19005KT 10SM SCT110 09/05 A2989 RMK AO2 SLP127 60002 T00890050 10150 20083 58006
KMFD 072252Z 21005KT 10SM FEW080 BKN100 09/06 A2991 RMK AO2 RAE17 SLP134 P0002 T00940056
KMFD 072152Z 26009KT 7SM -RA BKN037 OVC045 09/06 A2995 RMK AO2 PK WND 28028/2127 RAB32 SLP146 P0000 T00890056
KMFD 072052Z AUTO 22009KT 10SM FEW055 BKN075 OVC110 13/01 A2991 RMK AO2 SLP132 T01330011 58016 TSNO
KMFD 071952Z AUTO 26009KT 10SM FEW055 SCT095 14/01 A2993 RMK AO2 SLP135 T01440011 TSNO
KMFD 071852Z 26008KT 10SM FEW042 SCT060 13/02 A2995 RMK AO2 SLP143 T01330022 $
KMFD 071752Z 27011G16KT 10SM FEW040 BKN060 13/03 A2996 RMK AO2 SLP147 T01330028 10139 20067 58004 $
KMFD 071652Z 30008G17KT 260V320 10SM FEW030 SCT037 BKN055 12/03 A2997 RMK AO2 SLP151 T01170033 $
KMFD 071559Z 30007KT 260V340 10SM SCT025 BKN034 BKN046 11/04 A2997 RMK AO2 T01060039 $
KMFD 071552Z 31006KT 10SM BKN014 BKN019 BKN029 11/04 A2997 RMK AO2 SLP151 T01060039 $
KMFD 071452Z 32009KT 10SM BKN014 BKN029 09/06 A2997 RMK AO2 SLP153 T00940056 51014 $
KMFD 071401Z 33014KT 10SM FEW011 BKN016 OVC025 08/05 A2997 RMK AO2 T00830050 $
KMFD 071352Z 33014G19KT 10SM SCT008 BKN014 OVC055 08/05 A2997 RMK AO2 SLP152 T00780050 $
KMFD 071344Z 36009KT 10SM FEW008 BKN012 OVC055 08/05 A2996 RMK AO2 T00780050 $
KMFD 071252Z 34010KT 7SM BKN006 BKN012 OVC038 07/06 A2995 RMK AO2 SLP147 T00720061 $
KMFD 071152Z 34009KT 7SM SCT002 OVC009 07/06 A2993 RMK AO2 RAB1054E08 CIG 007V012 SLP139 P0000 60026 70041 T00720056 10089 20072 53011 $
KMFD 071143Z 35008KT 5SM BR BKN002 OVC009 07/06 A2993 RMK AO2 RAB1054E08 CIG 002V006 P0000 T00720056 $
KMFD 071116Z 34010KT 2 1/2SM BR OVC002 07/06 A2992 RMK AO2 RAB1054E08 P0000 T00720061 $
KMFD 071052Z 32009KT 5SM BR OVC003 07/06 A2991 RMK AO2 RAE49 CIG 002V006 SLP132 P0002 T00720061 $
KMFD 070952Z AUTO 33008KT 6SM -RA BR OVC003 08/06 A2990 RMK AO2 SLP128 P0006 T00780061 TSNO $
KMFD 070932Z AUTO 33008KT 4SM -RA BR BKN003 OVC007 08/07 A2990 RMK AO2 P0004 T00780067 TSNO $
KMFD 070921Z AUTO 31007KT 4SM -RA BR BKN005 OVC035 08/07 A2989 RMK AO2 CIG 003V011 P0003 T00780067 TSNO $